sensor_id;sensor_type;location;lat;lon;timestamp;P1;durP1;ratioP1;P2;durP2;ratioP2
11267;SDS011;49397;47.474;9.416;2023-02-01T00:01:39;9.03;;;5.80;;
11267;SDS011;49397;47.474;9.416;2023-02-01T00:04:04;8.43;;;6.37;;
11267;SDS011;49397;47.474;9.416;2023-02-01T00:06:30;8.77;;;5.53;;
11267;SDS011;49397;47.474;9.416;2023-02-01T00:08:55;7.77;;;5.57;;
11267;SDS011;49397;47.474;9.416;2023-02-01T00:11:21;7.40;;;5.70;;
11267;SDS011;49397;47.474;9.416;2023-02-01T00:13:48;10.33;;;5.13;;
11267;SDS011;49397;47.474;9.416;2023-02-01T00:16:15;8.97;;;5.63;;
11267;SDS011;49397;47.474;9.416;2023-02-01T00:18:44;7.00;;;5.47;;
11267;SDS011;49397;47.474;9.416;2023-02-01T00:21:11;7.37;;;5.30;;
11267;SDS011;49397;47.474;9.416;2023-02-01T00:23:37;6.03;;;5.43;;
11267;SDS011;49397;47.474;9.416;2023-02-01T00:26:04;7.57;;;5.63;;
11267;SDS011;49397;47.474;9.416;2023-02-01T00:28:32;6.60;;;5.33;;
11267;SDS011;49397;47.474;9.416;2023-02-01T00:31:02;12.20;;;4.93;;
11267;SDS011;49397;47.474;9.416;2023-02-01T00:33:29;8.07;;;6.03;;
11267;SDS011;49397;47.474;9.416;2023-02-01T00:36:05;8.97;;;5.27;;
11267;SDS011;49397;47.474;9.416;2023-02-01T00:38:33;7.10;;;4.80;;
11267;SDS011;49397;47.474;9.416;2023-02-01T00:41:02;5.27;;;4.77;;
11267;SDS011;49397;47.474;9.416;2023-02-01T00:43:30;5.40;;;4.90;;
11267;SDS011;49397;47.474;9.416;2023-02-01T00:45:56;7.50;;;4.53;;
11267;SDS011;49397;47.474;9.416;2023-02-01T00:48:21;6.60;;;5.17;;
11267;SDS011;49397;47.474;9.416;2023-02-01T00:50:47;7.53;;;5.17;;
11267;SDS011;49397;47.474;9.416;2023-02-01T00:53:12;5.57;;;4.93;;
11267;SDS011;49397;47.474;9.416;2023-02-01T00:55:38;6.87;;;5.07;;
11267;SDS011;49397;47.474;9.416;2023-02-01T00:58:03;8.37;;;5.90;;
11267;SDS011;49397;47.474;9.416;2023-02-01T01:00:34;7.53;;;5.13;;
11267;SDS011;49397;47.474;9.416;2023-02-01T01:03:00;9.40;;;5.60;;
11267;SDS011;49397;47.474;9.416;2023-02-01T01:05:26;6.47;;;4.60;;
11267;SDS011;49397;47.474;9.416;2023-02-01T01:07:53;6.90;;;5.37;;
11267;SDS011;49397;47.474;9.416;2023-02-01T01:10:19;8.10;;;5.43;;
11267;SDS011;49397;47.474;9.416;2023-02-01T01:12:44;8.67;;;5.43;;
11267;SDS011;49397;47.474;9.416;2023-02-01T01:15:10;6.17;;;4.80;;
11267;SDS011;49397;47.474;9.416;2023-02-01T01:17:35;10.67;;;6.03;;
11267;SDS011;49397;47.474;9.416;2023-02-01T01:20:01;7.17;;;5.23;;
11267;SDS011;49397;47.474;9.416;2023-02-01T01:22:27;8.60;;;5.90;;
11267;SDS011;49397;47.474;9.416;2023-02-01T01:24:52;8.00;;;5.30;;
11267;SDS011;49397;47.474;9.416;2023-02-01T01:27:18;9.63;;;5.23;;
11267;SDS011;49397;47.474;9.416;2023-02-01T01:29:48;7.80;;;5.17;;
11267;SDS011;49397;47.474;9.416;2023-02-01T01:32:14;5.27;;;4.77;;
11267;SDS011;49397;47.474;9.416;2023-02-01T01:34:40;9.37;;;5.03;;
11267;SDS011;49397;47.474;9.416;2023-02-01T01:37:05;8.03;;;4.73;;
11267;SDS011;49397;47.474;9.416;2023-02-01T01:39:31;7.30;;;5.30;;
11267;SDS011;49397;47.474;9.416;2023-02-01T01:41:56;6.37;;;5.53;;
11267;SDS011;49397;47.474;9.416;2023-02-01T01:47:43;7.17;;;4.80;;
11267;SDS011;49397;47.474;9.416;2023-02-01T01:50:12;7.03;;;4.67;;
11267;SDS011;49397;47.474;9.416;2023-02-01T01:52:42;8.53;;;5.47;;
11267;SDS011;49397;47.474;9.416;2023-02-01T01:55:11;8.93;;;4.97;;
11267;SDS011;49397;47.474;9.416;2023-02-01T01:57:40;8.23;;;5.23;;
11267;SDS011;49397;47.474;9.416;2023-02-01T02:00:13;9.07;;;5.27;;
11267;SDS011;49397;47.474;9.416;2023-02-01T02:02:41;8.93;;;5.07;;
11267;SDS011;49397;47.474;9.416;2023-02-01T02:05:09;8.47;;;5.13;;
11267;SDS011;49397;47.474;9.416;2023-02-01T02:07:37;5.97;;;4.80;;
11267;SDS011;49397;47.474;9.416;2023-02-01T02:10:09;7.00;;;5.17;;
11267;SDS011;49397;47.474;9.416;2023-02-01T02:12:39;7.10;;;5.13;;
11267;SDS011;49397;47.474;9.416;2023-02-01T02:15:07;10.10;;;5.87;;
11267;SDS011;49397;47.474;9.416;2023-02-01T02:20:30;6.93;;;5.53;;
11267;SDS011;49397;47.474;9.416;2023-02-01T02:37:04;7.23;;;5.13;;
11267;SDS011;49397;47.474;9.416;2023-02-01T02:39:53;9.40;;;5.63;;
11267;SDS011;49397;47.474;9.416;2023-02-01T02:42:33;7.00;;;5.10;;
11267;SDS011;49397;47.474;9.416;2023-02-01T02:45:22;8.30;;;5.57;;
11267;SDS011;49397;47.474;9.416;2023-02-01T02:57:10;7.67;;;5.67;;
11267;SDS011;49397;47.474;9.416;2023-02-01T02:59:59;6.30;;;5.50;;
11267;SDS011;49397;47.474;9.416;2023-02-01T03:02:46;9.27;;;5.20;;
11267;SDS011;49397;47.474;9.416;2023-02-01T03:05:33;7.90;;;4.67;;
11267;SDS011;49397;47.474;9.416;2023-02-01T03:08:04;7.30;;;5.03;;
11267;SDS011;49397;47.474;9.416;2023-02-01T03:10:41;7.93;;;5.23;;
11267;SDS011;49397;47.474;9.416;2023-02-01T03:13:28;6.47;;;4.77;;
11267;SDS011;49397;47.474;9.416;2023-02-01T03:16:02;5.97;;;4.17;;
11267;SDS011;49397;47.474;9.416;2023-02-01T03:18:33;5.47;;;4.60;;
11267;SDS011;49397;47.474;9.416;2023-02-01T03:21:02;6.07;;;4.70;;
11267;SDS011;49397;47.474;9.416;2023-02-01T03:23:33;5.87;;;4.53;;
11267;SDS011;49397;47.474;9.416;2023-02-01T03:26:02;6.93;;;4.83;;
11267;SDS011;49397;47.474;9.416;2023-02-01T03:28:31;6.63;;;4.73;;
11267;SDS011;49397;47.474;9.416;2023-02-01T03:31:00;6.63;;;4.70;;
11267;SDS011;49397;47.474;9.416;2023-02-01T03:33:26;5.10;;;4.60;;
11267;SDS011;49397;47.474;9.416;2023-02-01T03:40:51;8.17;;;5.13;;
11267;SDS011;49397;47.474;9.416;2023-02-01T03:43:43;10.90;;;5.70;;
11267;SDS011;49397;47.474;9.416;2023-02-01T03:46:22;7.03;;;5.47;;
11267;SDS011;49397;47.474;9.416;2023-02-01T03:48:59;7.47;;;5.23;;
11267;SDS011;49397;47.474;9.416;2023-02-01T03:51:28;8.70;;;4.90;;
11267;SDS011;49397;47.474;9.416;2023-02-01T03:53:55;5.67;;;4.13;;
11267;SDS011;49397;47.474;9.416;2023-02-01T03:56:22;6.33;;;4.73;;
11267;SDS011;49397;47.474;9.416;2023-02-01T03:58:50;6.77;;;5.20;;
11267;SDS011;49397;47.474;9.416;2023-02-01T04:01:26;5.97;;;5.37;;
11267;SDS011;49397;47.474;9.416;2023-02-01T04:03:53;6.00;;;4.53;;
11267;SDS011;49397;47.474;9.416;2023-02-01T04:06:19;10.60;;;5.47;;
11267;SDS011;49397;47.474;9.416;2023-02-01T04:08:45;7.03;;;4.63;;
11267;SDS011;49397;47.474;9.416;2023-02-01T04:11:10;5.80;;;4.50;;
11267;SDS011;49397;47.474;9.416;2023-02-01T04:13:36;7.00;;;5.03;;
11267;SDS011;49397;47.474;9.416;2023-02-01T04:16:01;8.17;;;4.63;;
11267;SDS011;49397;47.474;9.416;2023-02-01T04:18:27;5.80;;;4.70;;
11267;SDS011;49397;47.474;9.416;2023-02-01T04:20:52;6.03;;;4.37;;
11267;SDS011;49397;47.474;9.416;2023-02-01T04:23:18;6.97;;;5.43;;
11267;SDS011;49397;47.474;9.416;2023-02-01T04:25:43;5.87;;;4.87;;
11267;SDS011;49397;47.474;9.416;2023-02-01T04:28:08;7.30;;;4.50;;
11267;SDS011;49397;47.474;9.416;2023-02-01T04:30:34;6.13;;;4.67;;
11267;SDS011;49397;47.474;9.416;2023-02-01T04:33:00;8.30;;;4.67;;
11267;SDS011;49397;47.474;9.416;2023-02-01T04:35:25;5.23;;;4.10;;
11267;SDS011;49397;47.474;9.416;2023-02-01T04:37:51;4.50;;;4.10;;
11267;SDS011;49397;47.474;9.416;2023-02-01T04:40:16;8.70;;;5.53;;
11267;SDS011;49397;47.474;9.416;2023-02-01T04:42:42;6.00;;;4.70;;
11267;SDS011;49397;47.474;9.416;2023-02-01T04:45:07;8.37;;;4.20;;
11267;SDS011;49397;47.474;9.416;2023-02-01T04:47:34;8.17;;;4.93;;
11267;SDS011;49397;47.474;9.416;2023-02-01T04:50:00;5.03;;;4.13;;
11267;SDS011;49397;47.474;9.416;2023-02-01T04:52:25;6.33;;;4.43;;
11267;SDS011;49397;47.474;9.416;2023-02-01T04:54:52;5.67;;;3.80;;
11267;SDS011;49397;47.474;9.416;2023-02-01T04:57:19;6.13;;;4.90;;
11267;SDS011;49397;47.474;9.416;2023-02-01T04:59:45;6.53;;;4.53;;
11267;SDS011;49397;47.474;9.416;2023-02-01T05:02:10;6.40;;;5.23;;
11267;SDS011;49397;47.474;9.416;2023-02-01T05:04:36;4.43;;;3.90;;
11267;SDS011;49397;47.474;9.416;2023-02-01T05:07:01;4.90;;;4.40;;
11267;SDS011;49397;47.474;9.416;2023-02-01T05:09:27;4.97;;;4.43;;
11267;SDS011;49397;47.474;9.416;2023-02-01T05:11:52;6.23;;;4.70;;
11267;SDS011;49397;47.474;9.416;2023-02-01T05:14:36;6.30;;;4.17;;
11267;SDS011;49397;47.474;9.416;2023-02-01T05:17:01;6.27;;;4.90;;
11267;SDS011;49397;47.474;9.416;2023-02-01T05:19:27;7.77;;;4.60;;
11267;SDS011;49397;47.474;9.416;2023-02-01T05:21:52;6.30;;;4.43;;
11267;SDS011;49397;47.474;9.416;2023-02-01T05:24:18;5.47;;;4.23;;
11267;SDS011;49397;47.474;9.416;2023-02-01T05:26:47;7.77;;;4.17;;
11267;SDS011;49397;47.474;9.416;2023-02-01T05:29:13;5.70;;;4.30;;
11267;SDS011;49397;47.474;9.416;2023-02-01T05:31:40;4.43;;;4.00;;
11267;SDS011;49397;47.474;9.416;2023-02-01T05:34:06;5.70;;;4.20;;
11267;SDS011;49397;47.474;9.416;2023-02-01T05:36:31;7.93;;;4.60;;
11267;SDS011;49397;47.474;9.416;2023-02-01T05:38:57;9.77;;;4.87;;
11267;SDS011;49397;47.474;9.416;2023-02-01T05:41:23;5.03;;;4.23;;
11267;SDS011;49397;47.474;9.416;2023-02-01T05:43:49;9.03;;;4.47;;
11267;SDS011;49397;47.474;9.416;2023-02-01T05:46:14;7.00;;;4.40;;
11267;SDS011;49397;47.474;9.416;2023-02-01T05:48:40;5.07;;;4.40;;
11267;SDS011;49397;47.474;9.416;2023-02-01T05:51:05;5.80;;;4.20;;
11267;SDS011;49397;47.474;9.416;2023-02-01T05:53:31;7.37;;;4.73;;
11267;SDS011;49397;47.474;9.416;2023-02-01T05:55:57;8.10;;;4.47;;
11267;SDS011;49397;47.474;9.416;2023-02-01T05:58:22;5.43;;;4.37;;
11267;SDS011;49397;47.474;9.416;2023-02-01T06:00:48;6.03;;;4.90;;
11267;SDS011;49397;47.474;9.416;2023-02-01T06:03:13;5.53;;;4.67;;
11267;SDS011;49397;47.474;9.416;2023-02-01T06:05:39;6.07;;;4.77;;
11267;SDS011;49397;47.474;9.416;2023-02-01T06:08:04;7.63;;;5.47;;
11267;SDS011;49397;47.474;9.416;2023-02-01T06:10:32;6.40;;;4.97;;
11267;SDS011;49397;47.474;9.416;2023-02-01T06:12:58;9.00;;;4.43;;
11267;SDS011;49397;47.474;9.416;2023-02-01T06:15:23;7.43;;;4.60;;
11267;SDS011;49397;47.474;9.416;2023-02-01T06:17:49;6.20;;;5.30;;
11267;SDS011;49397;47.474;9.416;2023-02-01T06:20:15;6.30;;;4.53;;
11267;SDS011;49397;47.474;9.416;2023-02-01T06:22:41;8.83;;;5.27;;
11267;SDS011;49397;47.474;9.416;2023-02-01T06:25:07;5.40;;;4.50;;
11267;SDS011;49397;47.474;9.416;2023-02-01T06:27:35;9.50;;;5.07;;
11267;SDS011;49397;47.474;9.416;2023-02-01T06:30:00;6.77;;;4.53;;
11267;SDS011;49397;47.474;9.416;2023-02-01T06:32:26;7.00;;;4.97;;
11267;SDS011;49397;47.474;9.416;2023-02-01T06:34:51;6.47;;;4.70;;
11267;SDS011;49397;47.474;9.416;2023-02-01T06:37:18;6.00;;;4.27;;
11267;SDS011;49397;47.474;9.416;2023-02-01T06:39:44;6.27;;;4.33;;
11267;SDS011;49397;47.474;9.416;2023-02-01T06:42:09;5.97;;;4.83;;
11267;SDS011;49397;47.474;9.416;2023-02-01T06:44:35;8.07;;;4.40;;
11267;SDS011;49397;47.474;9.416;2023-02-01T06:47:00;10.23;;;4.50;;
11267;SDS011;49397;47.474;9.416;2023-02-01T06:49:26;5.00;;;4.50;;
11267;SDS011;49397;47.474;9.416;2023-02-01T06:51:51;6.93;;;4.60;;
11267;SDS011;49397;47.474;9.416;2023-02-01T06:54:17;5.87;;;4.73;;
11267;SDS011;49397;47.474;9.416;2023-02-01T06:56:42;5.87;;;4.13;;
11267;SDS011;49397;47.474;9.416;2023-02-01T06:59:08;5.97;;;4.43;;
11267;SDS011;49397;47.474;9.416;2023-02-01T07:01:35;9.33;;;5.17;;
11267;SDS011;49397;47.474;9.416;2023-02-01T07:04:01;6.67;;;4.33;;
11267;SDS011;49397;47.474;9.416;2023-02-01T07:06:26;7.30;;;4.33;;
11267;SDS011;49397;47.474;9.416;2023-02-01T07:08:52;7.30;;;4.67;;
11267;SDS011;49397;47.474;9.416;2023-02-01T07:11:21;7.70;;;4.63;;
11267;SDS011;49397;47.474;9.416;2023-02-01T07:13:47;8.93;;;4.90;;
11267;SDS011;49397;47.474;9.416;2023-02-01T07:16:14;7.07;;;4.00;;
11267;SDS011;49397;47.474;9.416;2023-02-01T07:18:41;8.53;;;4.80;;
11267;SDS011;49397;47.474;9.416;2023-02-01T07:21:07;7.23;;;5.10;;
11267;SDS011;49397;47.474;9.416;2023-02-01T07:23:33;8.73;;;4.53;;
11267;SDS011;49397;47.474;9.416;2023-02-01T07:26:00;6.77;;;4.80;;
11267;SDS011;49397;47.474;9.416;2023-02-01T07:28:28;6.17;;;4.60;;
11267;SDS011;49397;47.474;9.416;2023-02-01T07:30:56;5.20;;;3.97;;
11267;SDS011;49397;47.474;9.416;2023-02-01T07:33:27;7.63;;;4.77;;
11267;SDS011;49397;47.474;9.416;2023-02-01T07:35:53;6.60;;;4.53;;
11267;SDS011;49397;47.474;9.416;2023-02-01T07:38:18;5.70;;;4.63;;
11267;SDS011;49397;47.474;9.416;2023-02-01T07:40:46;5.27;;;4.10;;
11267;SDS011;49397;47.474;9.416;2023-02-01T07:43:12;6.00;;;4.43;;
11267;SDS011;49397;47.474;9.416;2023-02-01T07:45:38;7.37;;;4.43;;
11267;SDS011;49397;47.474;9.416;2023-02-01T07:48:03;5.53;;;4.73;;
11267;SDS011;49397;47.474;9.416;2023-02-01T07:50:29;8.17;;;4.83;;
11267;SDS011;49397;47.474;9.416;2023-02-01T07:52:55;5.03;;;4.47;;
11267;SDS011;49397;47.474;9.416;2023-02-01T07:55:23;4.93;;;4.10;;
11267;SDS011;49397;47.474;9.416;2023-02-01T07:57:49;6.73;;;4.77;;
11267;SDS011;49397;47.474;9.416;2023-02-01T08:00:15;4.87;;;3.97;;
11267;SDS011;49397;47.474;9.416;2023-02-01T08:02:59;9.87;;;4.60;;
11267;SDS011;49397;47.474;9.416;2023-02-01T08:05:25;5.87;;;4.30;;
11267;SDS011;49397;47.474;9.416;2023-02-01T08:07:51;5.87;;;4.53;;
11267;SDS011;49397;47.474;9.416;2023-02-01T08:10:17;8.27;;;4.50;;
11267;SDS011;49397;47.474;9.416;2023-02-01T08:12:44;5.40;;;3.93;;
11267;SDS011;49397;47.474;9.416;2023-02-01T08:15:17;5.33;;;4.27;;
11267;SDS011;49397;47.474;9.416;2023-02-01T08:17:47;6.27;;;4.23;;
11267;SDS011;49397;47.474;9.416;2023-02-01T08:20:13;7.37;;;5.00;;
11267;SDS011;49397;47.474;9.416;2023-02-01T08:22:39;5.00;;;3.50;;
11267;SDS011;49397;47.474;9.416;2023-02-01T08:25:05;5.27;;;3.70;;
11267;SDS011;49397;47.474;9.416;2023-02-01T08:27:34;5.73;;;4.17;;
11267;SDS011;49397;47.474;9.416;2023-02-01T08:29:59;5.47;;;3.80;;
11267;SDS011;49397;47.474;9.416;2023-02-01T08:32:25;6.03;;;3.63;;
11267;SDS011;49397;47.474;9.416;2023-02-01T08:34:52;4.67;;;3.97;;
11267;SDS011;49397;47.474;9.416;2023-02-01T08:37:17;4.80;;;4.10;;
11267;SDS011;49397;47.474;9.416;2023-02-01T08:39:43;4.90;;;3.57;;
11267;SDS011;49397;47.474;9.416;2023-02-01T08:42:09;6.47;;;3.47;;
11267;SDS011;49397;47.474;9.416;2023-02-01T08:44:54;3.97;;;3.50;;
11267;SDS011;49397;47.474;9.416;2023-02-01T08:47:19;3.83;;;3.43;;
11267;SDS011;49397;47.474;9.416;2023-02-01T08:49:45;4.37;;;3.50;;
11267;SDS011;49397;47.474;9.416;2023-02-01T08:52:11;4.47;;;3.67;;
11267;SDS011;49397;47.474;9.416;2023-02-01T08:54:36;3.77;;;3.07;;
11267;SDS011;49397;47.474;9.416;2023-02-01T08:57:02;4.93;;;3.50;;
11267;SDS011;49397;47.474;9.416;2023-02-01T08:59:29;3.77;;;3.40;;
11267;SDS011;49397;47.474;9.416;2023-02-01T09:01:54;4.70;;;3.07;;
11267;SDS011;49397;47.474;9.416;2023-02-01T09:04:21;4.00;;;3.40;;
11267;SDS011;49397;47.474;9.416;2023-02-01T09:06:46;3.70;;;3.20;;
11267;SDS011;49397;47.474;9.416;2023-02-01T09:09:12;4.93;;;3.67;;
11267;SDS011;49397;47.474;9.416;2023-02-01T09:11:37;3.83;;;3.07;;
11267;SDS011;49397;47.474;9.416;2023-02-01T09:14:03;4.40;;;3.07;;
11267;SDS011;49397;47.474;9.416;2023-02-01T09:16:28;3.60;;;3.30;;
11267;SDS011;49397;47.474;9.416;2023-02-01T09:18:54;3.30;;;3.00;;
11267;SDS011;49397;47.474;9.416;2023-02-01T09:21:20;3.83;;;3.13;;
11267;SDS011;49397;47.474;9.416;2023-02-01T09:23:45;3.80;;;3.10;;
11267;SDS011;49397;47.474;9.416;2023-02-01T09:26:13;4.10;;;3.13;;
11267;SDS011;49397;47.474;9.416;2023-02-01T09:28:39;3.80;;;2.97;;
11267;SDS011;49397;47.474;9.416;2023-02-01T09:31:05;3.10;;;2.83;;
11267;SDS011;49397;47.474;9.416;2023-02-01T09:33:30;3.33;;;2.73;;
11267;SDS011;49397;47.474;9.416;2023-02-01T09:35:57;3.37;;;3.07;;
11267;SDS011;49397;47.474;9.416;2023-02-01T09:38:24;3.63;;;2.93;;
11267;SDS011;49397;47.474;9.416;2023-02-01T09:40:50;5.90;;;3.03;;
11267;SDS011;49397;47.474;9.416;2023-02-01T09:48:11;3.67;;;3.00;;
11267;SDS011;49397;47.474;9.416;2023-02-01T09:50:43;4.27;;;3.30;;
11267;SDS011;49397;47.474;9.416;2023-02-01T09:56:21;3.30;;;3.00;;
11267;SDS011;49397;47.474;9.416;2023-02-01T10:01:47;3.40;;;3.10;;
11267;SDS011;49397;47.474;9.416;2023-02-01T10:04:13;3.30;;;3.00;;
11267;SDS011;49397;47.474;9.416;2023-02-01T10:18:13;3.00;;;2.80;;
11267;SDS011;49397;47.474;9.416;2023-02-01T10:23:41;4.53;;;3.10;;
11267;SDS011;49397;47.474;9.416;2023-02-01T10:26:21;3.00;;;2.70;;
11267;SDS011;49397;47.474;9.416;2023-02-01T10:28:51;3.70;;;2.63;;
11267;SDS011;49397;47.474;9.416;2023-02-01T10:31:17;3.60;;;2.77;;
11267;SDS011;49397;47.474;9.416;2023-02-01T10:33:50;4.87;;;3.53;;
11267;SDS011;49397;47.474;9.416;2023-02-01T10:36:28;3.63;;;2.53;;
11267;SDS011;49397;47.474;9.416;2023-02-01T10:39:04;3.80;;;2.73;;
11267;SDS011;49397;47.474;9.416;2023-02-01T10:41:35;2.83;;;2.60;;
11267;SDS011;49397;47.474;9.416;2023-02-01T10:44:05;2.53;;;2.33;;
11267;SDS011;49397;47.474;9.416;2023-02-01T10:46:35;2.90;;;2.63;;
11267;SDS011;49397;47.474;9.416;2023-02-01T10:49:02;3.03;;;2.83;;
11267;SDS011;49397;47.474;9.416;2023-02-01T10:51:39;4.10;;;2.80;;
11267;SDS011;49397;47.474;9.416;2023-02-01T10:54:16;2.97;;;2.70;;
11267;SDS011;49397;47.474;9.416;2023-02-01T10:56:45;4.23;;;2.93;;
11267;SDS011;49397;47.474;9.416;2023-02-01T10:59:23;4.23;;;2.93;;
11267;SDS011;49397;47.474;9.416;2023-02-01T11:01:50;3.00;;;2.80;;
11267;SDS011;49397;47.474;9.416;2023-02-01T11:04:24;3.10;;;2.50;;
11267;SDS011;49397;47.474;9.416;2023-02-01T11:07:05;2.10;;;2.00;;
11267;SDS011;49397;47.474;9.416;2023-02-01T11:09:38;2.60;;;2.40;;
11267;SDS011;49397;47.474;9.416;2023-02-01T11:12:05;2.77;;;2.53;;
11267;SDS011;49397;47.474;9.416;2023-02-01T11:14:45;2.67;;;2.47;;
11267;SDS011;49397;47.474;9.416;2023-02-01T11:19:44;2.37;;;2.27;;
11267;SDS011;49397;47.474;9.416;2023-02-01T11:22:11;2.20;;;2.10;;
11267;SDS011;49397;47.474;9.416;2023-02-01T11:24:39;2.33;;;2.13;;
11267;SDS011;49397;47.474;9.416;2023-02-01T11:27:06;2.00;;;1.90;;
11267;SDS011;49397;47.474;9.416;2023-02-01T11:29:40;2.20;;;2.03;;
11267;SDS011;49397;47.474;9.416;2023-02-01T11:32:09;3.67;;;2.70;;
11267;SDS011;49397;47.474;9.416;2023-02-01T11:34:49;2.00;;;1.90;;
11267;SDS011;49397;47.474;9.416;2023-02-01T11:37:28;2.90;;;2.30;;
11267;SDS011;49397;47.474;9.416;2023-02-01T11:40:01;2.00;;;1.90;;
11267;SDS011;49397;47.474;9.416;2023-02-01T11:42:53;2.27;;;1.97;;
11267;SDS011;49397;47.474;9.416;2023-02-01T11:45:28;2.37;;;2.17;;
11267;SDS011;49397;47.474;9.416;2023-02-01T11:47:59;2.80;;;2.67;;
11267;SDS011;49397;47.474;9.416;2023-02-01T11:50:30;3.03;;;2.43;;
11267;SDS011;49397;47.474;9.416;2023-02-01T11:56:07;2.77;;;2.50;;
11267;SDS011;49397;47.474;9.416;2023-02-01T12:02:00;2.10;;;2.00;;
11267;SDS011;49397;47.474;9.416;2023-02-01T12:07:23;2.40;;;2.20;;
11267;SDS011;49397;47.474;9.416;2023-02-01T12:09:56;2.73;;;2.53;;
11267;SDS011;49397;47.474;9.416;2023-02-01T12:12:40;2.60;;;2.30;;
11267;SDS011;49397;47.474;9.416;2023-02-01T12:24:25;2.70;;;2.30;;
11267;SDS011;49397;47.474;9.416;2023-02-01T12:37:54;2.60;;;2.30;;
11267;SDS011;49397;47.474;9.416;2023-02-01T12:45:56;2.40;;;2.20;;
11267;SDS011;49397;47.474;9.416;2023-02-01T12:48:40;3.87;;;2.30;;
11267;SDS011;49397;47.474;9.416;2023-02-01T12:51:16;5.73;;;2.13;;
11267;SDS011;49397;47.474;9.416;2023-02-01T12:53:51;2.20;;;2.10;;
11267;SDS011;49397;47.474;9.416;2023-02-01T12:56:28;4.90;;;2.30;;
11267;SDS011;49397;47.474;9.416;2023-02-01T12:59:02;5.17;;;2.07;;
11267;SDS011;49397;47.474;9.416;2023-02-01T13:01:37;3.07;;;2.50;;
11267;SDS011;49397;47.474;9.416;2023-02-01T13:04:13;2.50;;;2.30;;
11267;SDS011;49397;47.474;9.416;2023-02-01T13:06:47;2.50;;;2.20;;
11267;SDS011;49397;47.474;9.416;2023-02-01T13:09:29;2.80;;;2.60;;
11267;SDS011;49397;47.474;9.416;2023-02-01T13:11:58;3.27;;;2.53;;
11267;SDS011;49397;47.474;9.416;2023-02-01T13:14:33;2.33;;;2.23;;
11267;SDS011;49397;47.474;9.416;2023-02-01T13:17:03;4.20;;;2.60;;
11267;SDS011;49397;47.474;9.416;2023-02-01T13:22:17;3.07;;;2.63;;
11267;SDS011;49397;47.474;9.416;2023-02-01T13:25:12;4.47;;;2.60;;
11267;SDS011;49397;47.474;9.416;2023-02-01T13:27:38;3.13;;;2.50;;
11267;SDS011;49397;47.474;9.416;2023-02-01T13:30:06;3.57;;;2.63;;
11267;SDS011;49397;47.474;9.416;2023-02-01T13:35:43;4.13;;;2.63;;
11267;SDS011;49397;47.474;9.416;2023-02-01T13:38:32;5.07;;;2.90;;
11267;SDS011;49397;47.474;9.416;2023-02-01T13:43:38;3.23;;;2.83;;
11267;SDS011;49397;47.474;9.416;2023-02-01T13:46:07;3.07;;;2.70;;
11267;SDS011;49397;47.474;9.416;2023-02-01T13:48:39;3.83;;;3.00;;
11267;SDS011;49397;47.474;9.416;2023-02-01T13:51:11;3.10;;;2.83;;
11267;SDS011;49397;47.474;9.416;2023-02-01T13:53:37;2.83;;;2.63;;
11267;SDS011;49397;47.474;9.416;2023-02-01T13:56:15;3.00;;;2.63;;
11267;SDS011;49397;47.474;9.416;2023-02-01T13:58:43;3.17;;;2.60;;
11267;SDS011;49397;47.474;9.416;2023-02-01T14:16:41;4.97;;;3.23;;
11267;SDS011;49397;47.474;9.416;2023-02-01T14:19:07;3.63;;;3.00;;
11267;SDS011;49397;47.474;9.416;2023-02-01T14:21:49;3.07;;;2.87;;
11267;SDS011;49397;47.474;9.416;2023-02-01T14:24:26;3.20;;;2.90;;
11267;SDS011;49397;47.474;9.416;2023-02-01T14:26:58;2.57;;;2.37;;
11267;SDS011;49397;47.474;9.416;2023-02-01T14:29:36;3.03;;;2.73;;
11267;SDS011;49397;47.474;9.416;2023-02-01T14:32:04;3.33;;;3.03;;
11267;SDS011;49397;47.474;9.416;2023-02-01T14:42:51;3.77;;;2.73;;
11267;SDS011;49397;47.474;9.416;2023-02-01T14:52:46;4.03;;;2.47;;
11267;SDS011;49397;47.474;9.416;2023-02-01T14:55:17;9.77;;;3.07;;
11267;SDS011;49397;47.474;9.416;2023-02-01T14:57:50;5.13;;;2.80;;
11267;SDS011;49397;47.474;9.416;2023-02-01T15:02:48;2.53;;;2.33;;
11267;SDS011;49397;47.474;9.416;2023-02-01T15:05:23;2.97;;;2.73;;
11267;SDS011;49397;47.474;9.416;2023-02-01T15:07:51;3.50;;;2.73;;
11267;SDS011;49397;47.474;9.416;2023-02-01T15:10:18;4.37;;;2.80;;
11267;SDS011;49397;47.474;9.416;2023-02-01T15:12:46;3.03;;;2.43;;
11267;SDS011;49397;47.474;9.416;2023-02-01T15:17:59;5.53;;;2.63;;
11267;SDS011;49397;47.474;9.416;2023-02-01T15:20:29;5.43;;;2.93;;
11267;SDS011;49397;47.474;9.416;2023-02-01T15:22:57;2.47;;;2.27;;
11267;SDS011;49397;47.474;9.416;2023-02-01T15:25:28;5.63;;;2.93;;
11267;SDS011;49397;47.474;9.416;2023-02-01T15:27:56;5.53;;;3.27;;
11267;SDS011;49397;47.474;9.416;2023-02-01T15:30:26;2.90;;;2.70;;
11267;SDS011;49397;47.474;9.416;2023-02-01T15:35:38;3.93;;;2.23;;
11267;SDS011;49397;47.474;9.416;2023-02-01T15:43:34;2.40;;;2.20;;
11267;SDS011;49397;47.474;9.416;2023-02-01T15:46:09;5.37;;;2.57;;
11267;SDS011;49397;47.474;9.416;2023-02-01T15:48:39;3.93;;;2.60;;
11267;SDS011;49397;47.474;9.416;2023-02-01T15:51:15;6.57;;;2.17;;
11267;SDS011;49397;47.474;9.416;2023-02-01T15:53:47;4.10;;;2.63;;
11267;SDS011;49397;47.474;9.416;2023-02-01T15:56:22;2.93;;;2.70;;
11267;SDS011;49397;47.474;9.416;2023-02-01T15:58:59;4.77;;;2.97;;
11267;SDS011;49397;47.474;9.416;2023-02-01T16:01:27;2.67;;;2.33;;
11267;SDS011;49397;47.474;9.416;2023-02-01T16:07:00;6.50;;;2.60;;
11267;SDS011;49397;47.474;9.416;2023-02-01T16:09:39;2.87;;;2.67;;
11267;SDS011;49397;47.474;9.416;2023-02-01T16:15:10;3.30;;;2.37;;
11267;SDS011;49397;47.474;9.416;2023-02-01T16:17:36;2.47;;;2.27;;
11267;SDS011;49397;47.474;9.416;2023-02-01T16:20:01;3.30;;;2.23;;
11267;SDS011;49397;47.474;9.416;2023-02-01T16:22:27;2.30;;;2.20;;
11267;SDS011;49397;47.474;9.416;2023-02-01T16:24:52;4.80;;;2.33;;
11267;SDS011;49397;47.474;9.416;2023-02-01T16:27:18;5.27;;;2.60;;
11267;SDS011;49397;47.474;9.416;2023-02-01T16:29:44;8.20;;;2.70;;
11267;SDS011;49397;47.474;9.416;2023-02-01T16:32:15;9.37;;;3.03;;
11267;SDS011;49397;47.474;9.416;2023-02-01T16:34:44;4.83;;;2.57;;
11267;SDS011;49397;47.474;9.416;2023-02-01T16:37:16;3.10;;;2.83;;
11267;SDS011;49397;47.474;9.416;2023-02-01T16:39:45;5.67;;;3.63;;
11267;SDS011;49397;47.474;9.416;2023-02-01T16:42:11;5.93;;;2.43;;
11267;SDS011;49397;47.474;9.416;2023-02-01T16:44:38;6.87;;;3.27;;
11267;SDS011;49397;47.474;9.416;2023-02-01T16:47:25;5.23;;;2.90;;
11267;SDS011;49397;47.474;9.416;2023-02-01T16:49:50;5.50;;;2.73;;
11267;SDS011;49397;47.474;9.416;2023-02-01T16:52:20;6.23;;;2.70;;
11267;SDS011;49397;47.474;9.416;2023-02-01T16:54:47;4.97;;;2.87;;
11267;SDS011;49397;47.474;9.416;2023-02-01T16:57:15;6.83;;;2.60;;
11267;SDS011;49397;47.474;9.416;2023-02-01T16:59:42;5.77;;;2.83;;
11267;SDS011;49397;47.474;9.416;2023-02-01T17:02:10;11.43;;;2.83;;
11267;SDS011;49397;47.474;9.416;2023-02-01T17:04:40;3.00;;;2.70;;
11267;SDS011;49397;47.474;9.416;2023-02-01T17:07:06;4.27;;;3.07;;
11267;SDS011;49397;47.474;9.416;2023-02-01T17:09:36;4.00;;;3.07;;
11267;SDS011;49397;47.474;9.416;2023-02-01T17:12:02;5.10;;;2.97;;
11267;SDS011;49397;47.474;9.416;2023-02-01T17:14:29;4.23;;;2.80;;
11267;SDS011;49397;47.474;9.416;2023-02-01T17:16:56;4.33;;;3.07;;
11267;SDS011;49397;47.474;9.416;2023-02-01T17:19:22;2.57;;;2.37;;
11267;SDS011;49397;47.474;9.416;2023-02-01T17:21:49;4.43;;;2.83;;
11267;SDS011;49397;47.474;9.416;2023-02-01T17:24:18;4.07;;;2.57;;
11267;SDS011;49397;47.474;9.416;2023-02-01T17:26:45;4.63;;;2.60;;
11267;SDS011;49397;47.474;9.416;2023-02-01T17:29:11;5.87;;;2.90;;
11267;SDS011;49397;47.474;9.416;2023-02-01T17:31:38;7.60;;;3.73;;
11267;SDS011;49397;47.474;9.416;2023-02-01T17:34:06;5.00;;;2.83;;
11267;SDS011;49397;47.474;9.416;2023-02-01T17:36:31;3.83;;;2.93;;